createdAt,value
2018-05-13T00:01:36.161Z,20.00
2018-05-13T00:04:03.087Z,19.90
2018-05-13T00:06:30.035Z,19.80
2018-05-13T00:08:56.978Z,19.80
2018-05-13T00:11:23.916Z,19.80
2018-05-13T00:13:50.108Z,19.80
2018-05-13T00:16:16.293Z,19.70
2018-05-13T00:18:42.500Z,19.70
2018-05-13T00:21:08.716Z,19.70
2018-05-13T00:23:34.899Z,19.70
2018-05-13T00:26:01.110Z,19.60
2018-05-13T00:28:27.295Z,19.60
2018-05-13T00:30:53.489Z,19.60
2018-05-13T00:33:19.719Z,19.60
2018-05-13T00:35:45.941Z,19.60
2018-05-13T00:38:12.133Z,19.60
2018-05-13T00:40:39.057Z,19.60
2018-05-13T00:43:05.280Z,19.60
2018-05-13T00:45:32.952Z,19.50
2018-05-13T00:47:59.169Z,19.50
2018-05-13T00:50:25.415Z,19.50
2018-05-13T00:52:51.646Z,19.50
2018-05-13T00:55:18.570Z,19.50
2018-05-13T00:57:44.731Z,19.50
2018-05-13T01:00:10.946Z,19.50
2018-05-13T01:02:37.871Z,19.40
2018-05-13T01:05:04.157Z,19.40
2018-05-13T01:07:30.361Z,19.40
2018-05-13T01:09:57.295Z,19.40
2018-05-13T01:12:24.253Z,19.40
2018-05-13T01:14:50.447Z,19.40
2018-05-13T01:17:17.391Z,19.40
2018-05-13T01:19:43.644Z,19.40
2018-05-13T01:22:09.867Z,19.40
2018-05-13T01:24:36.797Z,19.40
2018-05-13T01:27:03.757Z,19.40
2018-05-13T01:29:30.689Z,19.40
2018-05-13T01:31:57.613Z,19.40
2018-05-13T01:34:23.796Z,19.40
2018-05-13T01:36:49.964Z,19.40
2018-05-13T01:39:16.168Z,19.40
2018-05-13T01:41:42.336Z,19.40
2018-05-13T01:44:08.525Z,19.40
2018-05-13T01:46:34.766Z,19.40
2018-05-13T01:49:00.964Z,19.40
2018-05-13T01:51:27.154Z,19.40
2018-05-13T01:53:53.455Z,19.40
2018-05-13T01:56:19.625Z,19.40
2018-05-13T01:58:46.556Z,19.40
2018-05-13T02:01:13.505Z,19.40
2018-05-13T02:03:40.427Z,19.40
2018-05-13T02:06:06.632Z,19.40
2018-05-13T02:08:32.840Z,19.40
2018-05-13T02:10:59.048Z,19.40
2018-05-13T02:13:25.246Z,19.30
2018-05-13T02:15:51.436Z,19.40
2018-05-13T02:18:17.656Z,19.30
2018-05-13T02:20:43.828Z,19.40
2018-05-13T02:23:10.035Z,19.40
2018-05-13T02:25:36.220Z,19.30
2018-05-13T02:28:02.446Z,19.30
2018-05-13T02:30:28.646Z,19.30
2018-05-13T02:32:55.605Z,19.30
2018-05-13T02:35:22.516Z,19.30
2018-05-13T02:37:48.712Z,19.20
2018-05-13T02:40:14.905Z,19.30
2018-05-13T02:42:41.828Z,19.20
2018-05-13T02:45:08.012Z,19.20
2018-05-13T02:47:34.219Z,19.20
2018-05-13T02:50:00.408Z,19.20
2018-05-13T02:52:27.351Z,19.20
2018-05-13T02:54:54.284Z,19.20
2018-05-13T02:57:20.456Z,19.20
2018-05-13T02:59:46.638Z,19.20
2018-05-13T03:02:14.331Z,19.10
2018-05-13T03:04:40.524Z,19.10
2018-05-13T03:07:06.706Z,19.10
2018-05-13T03:09:32.874Z,19.10
2018-05-13T03:11:59.091Z,19.10
2018-05-13T03:14:25.389Z,19.10
2018-05-13T03:16:51.501Z,19.10
2018-05-13T03:19:18.430Z,19.00
2018-05-13T03:21:45.385Z,19.00
2018-05-13T03:24:12.309Z,19.00
2018-05-13T03:26:39.231Z,19.00
2018-05-13T03:29:05.421Z,19.00
2018-05-13T03:31:31.607Z,19.00
2018-05-13T03:33:57.775Z,19.00
2018-05-13T03:36:23.965Z,19.00
2018-05-13T03:38:50.154Z,19.00
2018-05-13T03:41:16.358Z,19.00
2018-05-13T03:43:42.557Z,19.00
2018-05-13T03:46:09.503Z,19.00
2018-05-13T03:48:36.427Z,19.00
2018-05-13T03:51:03.394Z,19.00
2018-05-13T03:53:30.338Z,19.00
2018-05-13T03:55:57.253Z,19.00
2018-05-13T03:58:24.932Z,18.90
2018-05-13T04:00:51.891Z,19.00
2018-05-13T04:03:18.931Z,19.00
2018-05-13T04:05:45.896Z,19.00
2018-05-13T04:11:31.717Z,19.20
2018-05-13T04:14:10.936Z,18.90
2018-05-13T04:16:37.087Z,18.90
2018-05-13T04:19:03.267Z,18.90
2018-05-13T04:21:29.435Z,18.90
2018-05-13T04:23:55.627Z,18.90
2018-05-13T04:26:22.554Z,18.90
2018-05-13T04:28:48.733Z,18.90
2018-05-13T04:31:14.926Z,19.00
2018-05-13T04:33:41.863Z,19.00
2018-05-13T04:36:08.080Z,18.90
2018-05-13T04:38:35.045Z,19.00
2018-05-13T04:41:01.988Z,19.00
2018-05-13T04:43:28.903Z,19.10
2018-05-13T04:45:55.099Z,19.00
2018-05-13T04:48:28.883Z,19.10
2018-05-13T04:50:55.075Z,19.10
2018-05-13T04:53:22.046Z,19.20
2018-05-13T04:55:48.953Z,19.20
2018-05-13T04:58:15.170Z,19.20
2018-05-13T05:00:41.416Z,19.20
2018-05-13T05:03:07.595Z,19.30
2018-05-13T05:05:33.776Z,19.30
2018-05-13T05:07:59.970Z,19.30
2018-05-13T05:10:26.153Z,19.30
2018-05-13T05:12:53.072Z,19.30
2018-05-13T05:15:19.279Z,19.30
2018-05-13T05:17:45.448Z,19.30
2018-05-13T05:20:11.704Z,19.30
2018-05-13T05:22:37.881Z,19.30
2018-05-13T05:25:04.069Z,19.30
2018-05-13T05:27:30.276Z,19.30
2018-05-13T05:29:56.457Z,19.30
2018-05-13T05:32:22.624Z,19.30
2018-05-13T05:34:48.784Z,19.30
2018-05-13T05:37:14.955Z,19.30
2018-05-13T05:39:41.863Z,19.30
2018-05-13T05:42:08.044Z,19.30
2018-05-13T05:44:34.600Z,19.30
2018-05-13T05:47:00.792Z,19.30
2018-05-13T05:49:27.729Z,19.30
2018-05-13T05:51:54.707Z,19.30
2018-05-13T05:54:21.043Z,19.30
2018-05-13T05:56:48.305Z,19.20
2018-05-13T05:59:14.513Z,19.20
2018-05-13T06:01:41.592Z,19.10
2018-05-13T06:04:08.878Z,19.10
2018-05-13T06:06:36.498Z,19.00
2018-05-13T06:09:02.776Z,19.00
2018-05-13T06:11:29.744Z,18.80
2018-05-13T06:13:55.952Z,18.80
2018-05-13T06:16:22.167Z,18.80
2018-05-13T06:18:48.373Z,18.70
2018-05-13T06:21:14.602Z,18.70
2018-05-13T06:23:40.806Z,18.60
2018-05-13T06:26:06.988Z,18.60
2018-05-13T06:28:33.997Z,18.50
2018-05-13T06:31:00.292Z,18.50
2018-05-13T06:33:26.491Z,18.50
2018-05-13T06:35:53.428Z,18.60
2018-05-13T06:38:20.355Z,18.60
2018-05-13T06:40:46.534Z,18.60
2018-05-13T06:43:12.714Z,18.50
2018-05-13T06:45:38.951Z,18.50
2018-05-13T06:48:05.144Z,18.50
2018-05-13T06:50:31.403Z,18.50
2018-05-13T06:52:58.380Z,18.50
2018-05-13T06:55:24.743Z,18.50
2018-05-13T06:57:51.083Z,18.50
2018-05-13T07:00:18.099Z,18.60
2018-05-13T07:02:44.322Z,18.60
2018-05-13T07:05:11.247Z,18.70
2018-05-13T07:07:38.171Z,18.70
2018-05-13T07:10:04.439Z,18.70
2018-05-13T07:12:30.599Z,18.80
2018-05-13T07:14:57.582Z,18.80
2018-05-13T07:17:24.508Z,18.80
2018-05-13T07:19:50.687Z,18.70
2018-05-13T07:22:16.901Z,18.70
2018-05-13T07:24:43.113Z,18.70
2018-05-13T07:27:09.399Z,18.80
2018-05-13T07:29:35.578Z,18.80
2018-05-13T07:32:02.506Z,18.90
2018-05-13T07:34:28.717Z,18.90
2018-05-13T07:36:54.911Z,19.00
2018-05-13T07:39:21.093Z,19.00
2018-05-13T07:41:47.305Z,19.10
2018-05-13T07:44:13.525Z,19.20
2018-05-13T07:46:39.709Z,19.30
2018-05-13T07:49:05.888Z,19.50
2018-05-13T07:51:32.076Z,19.60
2018-05-13T07:53:58.248Z,19.70
2018-05-13T07:56:24.428Z,19.90
2018-05-13T07:58:50.642Z,20.00
2018-05-13T08:01:17.525Z,20.20
2018-05-13T08:03:43.709Z,20.20
2018-05-13T08:06:09.942Z,20.40
2018-05-13T08:08:36.230Z,20.50
2018-05-13T08:11:02.463Z,20.50
2018-05-13T08:13:28.637Z,20.60
2018-05-13T08:15:54.819Z,20.60
2018-05-13T08:18:21.770Z,20.70
2018-05-13T08:20:47.976Z,20.70
2018-05-13T08:23:14.273Z,20.70
2018-05-13T08:25:40.483Z,20.80
2018-05-13T08:28:06.674Z,20.80
2018-05-13T08:30:33.596Z,20.80
2018-05-13T08:32:59.780Z,20.80
2018-05-13T08:35:26.694Z,20.80
2018-05-13T08:37:53.608Z,20.80
2018-05-13T08:40:19.931Z,20.80
2018-05-13T08:42:46.884Z,20.80
2018-05-13T08:45:13.072Z,20.80
2018-05-13T08:47:39.252Z,20.80
2018-05-13T08:50:05.444Z,20.80
2018-05-13T08:52:31.625Z,20.70
2018-05-13T08:54:58.565Z,20.70
2018-05-13T08:57:25.490Z,20.70
2018-05-13T08:59:51.775Z,20.70
2018-05-13T09:02:17.992Z,20.70
2018-05-13T09:04:44.175Z,20.70
2018-05-13T09:07:10.352Z,20.70
2018-05-13T09:09:36.532Z,20.60
2018-05-13T09:12:02.767Z,20.60
2018-05-13T09:14:29.026Z,20.50
2018-05-13T09:16:55.144Z,20.40
2018-05-13T09:19:21.374Z,20.40
2018-05-13T09:21:48.279Z,20.40
2018-05-13T09:24:14.575Z,20.40
2018-05-13T09:26:40.817Z,20.40
2018-05-13T09:29:07.768Z,20.40
2018-05-13T09:31:34.732Z,20.40
2018-05-13T09:34:00.928Z,20.40
2018-05-13T09:36:27.116Z,20.50
2018-05-13T09:38:53.308Z,20.40
2018-05-13T09:41:20.361Z,20.40
2018-05-13T09:43:47.389Z,20.40
2018-05-13T09:46:13.612Z,20.40
2018-05-13T09:48:39.907Z,20.40
2018-05-13T09:51:06.092Z,20.30
2018-05-13T09:53:32.424Z,20.30
2018-05-13T09:55:59.494Z,20.20
2018-05-13T09:58:25.785Z,20.20
2018-05-13T10:00:52.120Z,20.10
2018-05-13T10:03:19.204Z,20.00
2018-05-13T10:05:45.403Z,20.00
2018-05-13T10:08:11.805Z,19.90
2018-05-13T10:10:37.998Z,19.90
2018-05-13T10:13:04.191Z,19.80
2018-05-13T10:15:30.392Z,19.80
2018-05-13T10:17:56.573Z,19.70
2018-05-13T10:20:22.752Z,19.70
2018-05-13T10:22:50.420Z,19.60
2018-05-13T10:25:16.630Z,19.60
2018-05-13T10:27:42.809Z,19.60
2018-05-13T10:30:09.012Z,19.50
2018-05-13T10:32:36.004Z,19.30
2018-05-13T10:35:02.225Z,19.30
2018-05-13T10:37:28.401Z,19.20
2018-05-13T10:39:54.759Z,19.10
2018-05-13T10:42:21.767Z,19.00
2018-05-13T10:44:48.634Z,18.90
2018-05-13T10:47:14.816Z,18.90
2018-05-13T10:49:41.021Z,18.80
2018-05-13T10:52:07.223Z,18.70
2018-05-13T10:54:33.436Z,18.70
2018-05-13T10:57:01.086Z,18.60
2018-05-13T10:59:28.056Z,18.60
2018-05-13T11:01:55.029Z,18.60
2018-05-13T11:04:21.195Z,18.60
2018-05-13T11:06:47.421Z,18.60
2018-05-13T11:09:13.601Z,18.60
2018-05-13T11:11:39.897Z,18.70
2018-05-13T11:14:06.937Z,18.60
2018-05-13T11:16:33.135Z,18.60
2018-05-13T11:18:59.408Z,18.60
2018-05-13T11:21:25.595Z,18.70
2018-05-13T11:23:51.768Z,18.70
2018-05-13T11:26:17.940Z,18.70
2018-05-13T11:28:44.119Z,18.70
2018-05-13T11:31:10.307Z,18.70
2018-05-13T11:33:36.492Z,18.80
2018-05-13T11:36:02.719Z,18.80
2018-05-13T11:38:29.671Z,18.80
2018-05-13T11:40:55.878Z,18.80
2018-05-13T11:43:22.820Z,18.70
2018-05-13T11:45:49.864Z,18.60
2018-05-13T11:48:16.806Z,18.50
2018-05-13T11:50:43.742Z,18.40
2018-05-13T11:53:10.004Z,18.40
2018-05-13T11:55:36.197Z,18.30
2018-05-13T11:58:02.388Z,18.20
2018-05-13T12:00:28.616Z,18.20
2018-05-13T12:02:54.837Z,18.20
2018-05-13T12:05:21.002Z,18.10
2018-05-13T12:07:47.374Z,18.10
2018-05-13T12:10:13.549Z,18.10
2018-05-13T12:12:39.778Z,18.10
2018-05-13T12:15:06.177Z,18.10
2018-05-13T12:17:32.279Z,18.20
2018-05-13T12:19:59.220Z,18.20
2018-05-13T12:22:26.192Z,18.20
2018-05-13T12:24:52.363Z,18.10
2018-05-13T12:27:18.577Z,18.20
2018-05-13T12:29:44.761Z,18.10
2018-05-13T12:32:10.996Z,18.10
2018-05-13T12:34:37.204Z,18.10
2018-05-13T12:37:04.120Z,18.00
2018-05-13T12:39:31.031Z,18.00
2018-05-13T12:41:57.211Z,18.00
2018-05-13T12:44:24.122Z,18.00
2018-05-13T12:46:50.284Z,18.00
2018-05-13T12:49:17.208Z,18.00
2018-05-13T12:51:44.852Z,18.10
2018-05-13T12:54:11.016Z,18.10
2018-05-13T12:56:37.955Z,18.10
2018-05-13T12:59:04.135Z,18.10
2018-05-13T13:01:30.327Z,18.10
2018-05-13T13:03:57.258Z,18.00
2018-05-13T13:06:24.175Z,18.00
2018-05-13T13:08:50.372Z,18.00
2018-05-13T13:11:16.617Z,18.00
2018-05-13T13:13:42.844Z,17.90
2018-05-13T13:16:09.077Z,17.80
2018-05-13T13:18:35.256Z,17.80
2018-05-13T13:21:02.195Z,17.70
2018-05-13T13:23:29.154Z,17.60
2018-05-13T13:25:55.371Z,17.60
2018-05-13T13:28:21.536Z,17.60
2018-05-13T13:30:47.779Z,17.60
2018-05-13T13:33:13.952Z,17.60
2018-05-13T13:35:47.920Z,17.50
2018-05-13T13:38:14.089Z,17.50
2018-05-13T13:40:41.001Z,17.50
2018-05-13T13:43:08.711Z,17.40
2018-05-13T13:45:34.907Z,17.40
2018-05-13T13:48:01.832Z,17.40
2018-05-13T13:50:28.035Z,17.30
2018-05-13T13:52:54.195Z,17.30
2018-05-13T13:55:21.180Z,17.20
2018-05-13T13:57:47.412Z,17.20
2018-05-13T14:00:13.610Z,17.20
2018-05-13T14:02:41.266Z,17.10
2018-05-13T14:05:07.447Z,17.20
2018-05-13T14:07:33.616Z,17.10
2018-05-13T14:09:59.798Z,17.20
2018-05-13T14:12:26.679Z,17.20
2018-05-13T14:14:54.383Z,17.10
2018-05-13T14:17:21.304Z,17.20
2018-05-13T14:19:47.500Z,17.10
2018-05-13T14:22:13.665Z,17.20
2018-05-13T14:24:40.575Z,17.20
2018-05-13T14:27:06.791Z,17.20
2018-05-13T14:29:32.991Z,17.20
2018-05-13T14:31:59.176Z,17.20
2018-05-13T14:34:26.867Z,17.20
2018-05-13T14:36:53.802Z,17.30
2018-05-13T14:39:20.711Z,17.20
2018-05-13T14:41:46.963Z,17.20
2018-05-13T14:44:13.941Z,17.20
2018-05-13T14:46:40.148Z,17.20
2018-05-13T14:49:07.167Z,17.20
2018-05-13T14:51:34.121Z,17.20
2018-05-13T14:54:00.300Z,17.10
2018-05-13T14:56:26.600Z,17.10
2018-05-13T14:58:53.508Z,17.00
2018-05-13T15:01:19.698Z,17.00
2018-05-13T15:03:45.879Z,17.00
2018-05-13T15:06:12.092Z,16.90
2018-05-13T15:08:38.220Z,16.90
2018-05-13T15:11:05.160Z,16.80
2018-05-13T15:13:31.337Z,16.80
2018-05-13T15:15:57.615Z,16.80
2018-05-13T15:18:24.669Z,16.80
2018-05-13T15:20:51.619Z,16.80
2018-05-13T15:23:17.796Z,16.80
2018-05-13T15:25:44.053Z,16.80
2018-05-13T15:28:10.252Z,16.90
2018-05-13T15:30:36.592Z,16.90
2018-05-13T15:33:02.828Z,16.90
2018-05-13T15:35:29.714Z,17.00
2018-05-13T15:37:57.360Z,16.90
2018-05-13T15:40:23.549Z,16.90
2018-05-13T15:42:49.787Z,17.00
2018-05-13T15:45:15.953Z,17.00
2018-05-13T15:47:42.988Z,17.10
2018-05-13T15:50:16.129Z,17.00
2018-05-13T15:52:42.336Z,17.10
2018-05-13T15:55:09.370Z,17.10
2018-05-13T15:57:35.437Z,17.10
2018-05-13T16:00:02.337Z,17.10
2018-05-13T16:02:28.500Z,17.10
2018-05-13T16:05:03.442Z,17.20
2018-05-13T16:07:29.619Z,17.20
2018-05-13T16:09:55.891Z,17.20
2018-05-13T16:12:22.114Z,17.20
2018-05-13T16:14:49.152Z,17.20
2018-05-13T16:17:15.444Z,17.10
2018-05-13T16:19:41.665Z,17.20
2018-05-13T16:22:07.965Z,17.10
2018-05-13T16:24:35.046Z,17.10
2018-05-13T16:27:01.436Z,17.10
2018-05-13T16:29:27.826Z,17.10
2018-05-13T16:31:54.958Z,17.10
2018-05-13T16:34:21.586Z,17.00
2018-05-13T16:36:48.007Z,17.00
2018-05-13T16:39:14.408Z,17.00
2018-05-13T16:41:41.488Z,17.00
2018-05-13T16:44:07.834Z,16.90
2018-05-13T16:46:34.116Z,16.90
2018-05-13T16:49:01.188Z,16.90
2018-05-13T16:51:27.535Z,16.90
2018-05-13T16:53:53.774Z,16.90
2018-05-13T16:56:19.960Z,16.90
2018-05-13T16:58:46.264Z,16.90
2018-05-13T17:01:12.600Z,16.90
2018-05-13T17:03:39.587Z,16.80
2018-05-13T17:06:05.888Z,16.80
2018-05-13T17:08:32.242Z,16.80
2018-05-13T17:10:58.508Z,16.80
2018-05-13T17:13:24.790Z,16.80
2018-05-13T17:15:51.807Z,16.70
2018-05-13T17:18:18.019Z,16.70
2018-05-13T17:20:44.177Z,16.70
2018-05-13T17:23:10.428Z,16.70
2018-05-13T17:25:36.618Z,16.70
2018-05-13T17:28:03.152Z,16.60
2018-05-13T17:30:29.433Z,16.60
2018-05-13T17:32:55.653Z,16.60
2018-05-13T17:35:21.832Z,16.60
2018-05-13T17:37:48.176Z,16.50
2018-05-13T17:40:14.342Z,16.50
2018-05-13T17:42:40.531Z,16.50
2018-05-13T17:45:06.750Z,16.40
2018-05-13T17:47:32.911Z,16.40
2018-05-13T17:50:07.020Z,16.40
2018-05-13T17:52:33.924Z,16.40
2018-05-13T17:55:00.089Z,16.40
2018-05-13T17:57:26.292Z,16.40
2018-05-13T17:59:52.441Z,16.40
2018-05-13T18:02:19.587Z,16.30
2018-05-13T18:04:45.700Z,16.30
2018-05-13T18:07:11.996Z,16.30
2018-05-13T18:09:39.800Z,16.20
2018-05-13T18:12:05.956Z,16.20
2018-05-13T18:14:32.852Z,16.20
2018-05-13T18:16:59.040Z,16.20
2018-05-13T18:19:25.248Z,16.20
2018-05-13T18:21:51.437Z,16.20
2018-05-13T18:24:19.092Z,16.10
2018-05-13T18:26:45.243Z,16.10
2018-05-13T18:29:11.416Z,16.10
2018-05-13T18:31:37.667Z,16.10
2018-05-13T18:34:04.636Z,16.00
2018-05-13T18:36:31.666Z,16.00
2018-05-13T18:38:57.895Z,16.00
2018-05-13T18:41:24.066Z,16.00
2018-05-13T18:43:51.167Z,16.00
2018-05-13T18:46:17.337Z,16.00
2018-05-13T18:48:44.215Z,16.00
2018-05-13T18:51:10.377Z,16.00
2018-05-13T18:53:36.547Z,16.00
2018-05-13T18:56:03.455Z,16.00
2018-05-13T18:58:29.637Z,16.00
2018-05-13T19:00:55.850Z,16.00
2018-05-13T19:03:22.029Z,16.00
2018-05-13T19:05:48.963Z,16.00
2018-05-13T19:08:15.120Z,16.00
2018-05-13T19:10:42.002Z,16.00
2018-05-13T19:13:08.143Z,15.80
2018-05-13T19:15:34.300Z,16.00
2018-05-13T19:18:00.449Z,16.00
2018-05-13T19:20:27.413Z,15.90
2018-05-13T19:22:53.672Z,15.90
2018-05-13T19:25:19.923Z,16.00
2018-05-13T19:27:46.115Z,15.90
2018-05-13T19:30:12.292Z,15.90
2018-05-13T19:32:39.196Z,15.90
2018-05-13T19:35:05.362Z,15.90
2018-05-13T19:37:32.265Z,15.80
2018-05-13T19:39:58.419Z,15.80
2018-05-13T19:42:24.588Z,15.80
2018-05-13T19:44:51.465Z,15.80
2018-05-13T19:47:17.619Z,15.80
2018-05-13T19:49:43.809Z,15.80
2018-05-13T19:52:09.988Z,15.80
2018-05-13T19:54:36.146Z,15.80
2018-05-13T19:57:02.324Z,15.80
2018-05-13T19:59:28.468Z,15.90
2018-05-13T20:01:54.646Z,16.00
2018-05-13T20:04:20.847Z,15.90
2018-05-13T20:06:47.738Z,15.90
2018-05-13T20:09:13.987Z,15.80
2018-05-13T20:11:40.183Z,16.00
2018-05-13T20:14:06.382Z,15.90
2018-05-13T20:16:32.549Z,15.90
2018-05-13T20:18:58.712Z,15.90
2018-05-13T20:21:24.951Z,15.90
2018-05-13T20:23:51.827Z,15.90
2018-05-13T20:26:18.043Z,15.90
2018-05-13T20:28:44.171Z,15.90
2018-05-13T20:31:10.391Z,15.90
2018-05-13T20:33:36.548Z,15.90
2018-05-13T20:36:02.795Z,15.90
2018-05-13T20:38:28.913Z,15.90
2018-05-13T20:40:55.079Z,15.90
2018-05-13T20:43:22.031Z,15.90
2018-05-13T20:45:49.066Z,15.80
2018-05-13T20:48:22.299Z,15.80
2018-05-13T20:50:48.524Z,15.80
2018-05-13T20:53:14.681Z,15.80
2018-05-13T20:55:40.874Z,15.80
2018-05-13T20:58:07.032Z,15.80
2018-05-13T21:00:33.193Z,15.80
2018-05-13T21:03:00.076Z,15.80
2018-05-13T21:05:26.244Z,15.70
2018-05-13T21:07:53.873Z,15.70
2018-05-13T21:10:20.018Z,15.70
2018-05-13T21:12:46.924Z,15.70
2018-05-13T21:15:13.077Z,15.70
2018-05-13T21:17:39.258Z,15.70
2018-05-13T21:20:05.451Z,15.70
2018-05-13T21:22:33.068Z,15.60
2018-05-13T21:25:06.207Z,15.60
2018-05-13T21:27:32.523Z,15.70
2018-05-13T21:29:59.443Z,15.60
2018-05-13T21:32:25.841Z,15.60
2018-05-13T21:34:52.169Z,15.60
2018-05-13T21:37:18.529Z,15.60
2018-05-13T21:39:44.936Z,15.60
2018-05-13T21:42:11.127Z,15.60
2018-05-13T21:44:38.835Z,15.50
2018-05-13T21:47:05.156Z,15.50
2018-05-13T21:49:31.410Z,15.50
2018-05-13T21:51:57.701Z,15.60
2018-05-13T21:54:23.911Z,15.50
2018-05-13T21:56:51.537Z,15.50
2018-05-13T21:59:17.715Z,15.50
2018-05-13T22:01:46.840Z,15.60
2018-05-13T22:04:13.005Z,15.50
2018-05-13T22:06:39.230Z,15.60
2018-05-13T22:09:12.286Z,15.60
2018-05-13T22:11:38.443Z,15.60
2018-05-13T22:14:04.592Z,15.60
2018-05-13T22:16:30.944Z,15.60
2018-05-13T22:18:57.129Z,15.60
2018-05-13T22:21:23.396Z,15.60
2018-05-13T22:23:49.643Z,15.60
2018-05-13T22:26:15.968Z,15.60
2018-05-13T22:28:42.861Z,15.60
2018-05-13T22:31:09.151Z,15.60
2018-05-13T22:33:35.395Z,15.70
2018-05-13T22:36:01.656Z,15.60
2018-05-13T22:38:29.408Z,15.60
2018-05-13T22:40:55.581Z,15.60
2018-05-13T22:43:21.774Z,15.70
2018-05-13T22:45:47.995Z,15.60
2018-05-13T22:48:14.257Z,15.70
2018-05-13T22:50:40.469Z,15.70
2018-05-13T22:53:06.749Z,15.70
2018-05-13T22:55:33.017Z,15.70
2018-05-13T22:57:59.229Z,15.70
2018-05-13T23:00:25.413Z,15.70
2018-05-13T23:02:51.617Z,15.70
2018-05-13T23:05:17.831Z,15.70
2018-05-13T23:07:44.797Z,15.60
2018-05-13T23:10:11.160Z,15.60
2018-05-13T23:12:37.359Z,15.70
2018-05-13T23:15:03.589Z,15.70
2018-05-13T23:17:29.788Z,15.60
2018-05-13T23:19:55.978Z,15.60
2018-05-13T23:22:33.412Z,15.70
2018-05-13T23:25:00.354Z,15.60
2018-05-13T23:27:26.555Z,15.60
2018-05-13T23:29:52.799Z,15.70
2018-05-13T23:32:19.779Z,15.70
2018-05-13T23:34:45.983Z,15.60
2018-05-13T23:37:12.961Z,15.70
2018-05-13T23:39:39.156Z,15.60
2018-05-13T23:42:06.096Z,15.70
2018-05-13T23:44:33.068Z,15.70
2018-05-13T23:46:59.275Z,15.70
2018-05-13T23:49:26.251Z,15.70
2018-05-13T23:51:52.466Z,15.70
2018-05-13T23:54:25.711Z,15.70
2018-05-13T23:56:51.968Z,15.70
2018-05-13T23:59:18.916Z,15.70
